sensor_id;sensor_type;location;lat;lon;timestamp;pressure;altitude;pressure_sealevel;temperature
51149;BMP280;37210;50.058;8.688;2023-07-30T00:00:58;99533.00;;;22.53
51149;BMP280;37210;50.058;8.688;2023-07-30T00:03:26;99555.19;;;22.54
51149;BMP280;37210;50.058;8.688;2023-07-30T00:05:55;99564.00;;;22.70
51149;BMP280;37210;50.058;8.688;2023-07-30T00:08:23;99553.44;;;21.93
51149;BMP280;37210;50.058;8.688;2023-07-30T00:10:50;99573.34;;;22.47
51149;BMP280;37210;50.058;8.688;2023-07-30T00:13:18;99571.34;;;22.66
51149;BMP280;37210;50.058;8.688;2023-07-30T00:15:45;99576.56;;;22.68
51149;BMP280;37210;50.058;8.688;2023-07-30T00:18:13;99562.97;;;22.58
51149;BMP280;37210;50.058;8.688;2023-07-30T00:20:41;99565.34;;;22.63
51149;BMP280;37210;50.058;8.688;2023-07-30T00:23:11;99591.88;;;22.80
51149;BMP280;37210;50.058;8.688;2023-07-30T00:25:38;99592.28;;;22.58
51149;BMP280;37210;50.058;8.688;2023-07-30T00:28:09;99591.75;;;22.67
51149;BMP280;37210;50.058;8.688;2023-07-30T00:30:36;99574.47;;;22.59
51149;BMP280;37210;50.058;8.688;2023-07-30T00:33:03;99593.66;;;22.65
51149;BMP280;37210;50.058;8.688;2023-07-30T00:35:31;99602.94;;;22.43
51149;BMP280;37210;50.058;8.688;2023-07-30T00:37:59;99599.22;;;22.45
51149;BMP280;37210;50.058;8.688;2023-07-30T00:40:28;99553.72;;;22.34
51149;BMP280;37210;50.058;8.688;2023-07-30T00:42:55;99567.72;;;22.38
51149;BMP280;37210;50.058;8.688;2023-07-30T00:45:23;99583.03;;;22.34
51149;BMP280;37210;50.058;8.688;2023-07-30T00:47:50;99597.38;;;22.32
51149;BMP280;37210;50.058;8.688;2023-07-30T00:50:18;99608.97;;;22.31
51149;BMP280;37210;50.058;8.688;2023-07-30T00:52:47;99617.47;;;22.37
51149;BMP280;37210;50.058;8.688;2023-07-30T00:55:15;99621.88;;;22.38
51149;BMP280;37210;50.058;8.688;2023-07-30T00:57:45;99620.25;;;22.36
51149;BMP280;37210;50.058;8.688;2023-07-30T01:00:13;99582.38;;;22.15
51149;BMP280;37210;50.058;8.688;2023-07-30T01:02:42;99614.81;;;22.37
51149;BMP280;37210;50.058;8.688;2023-07-30T01:05:10;99623.16;;;22.31
51149;BMP280;37210;50.058;8.688;2023-07-30T01:07:37;99627.81;;;22.27
51149;BMP280;37210;50.058;8.688;2023-07-30T01:10:06;99635.88;;;22.42
51149;BMP280;37210;50.058;8.688;2023-07-30T01:12:34;99635.19;;;22.38
51149;BMP280;37210;50.058;8.688;2023-07-30T01:15:05;99633.81;;;22.31
51149;BMP280;37210;50.058;8.688;2023-07-30T01:17:36;99627.06;;;22.25
51149;BMP280;37210;50.058;8.688;2023-07-30T01:20:05;99618.97;;;22.27
51149;BMP280;37210;50.058;8.688;2023-07-30T01:22:34;99644.13;;;22.37
51149;BMP280;37210;50.058;8.688;2023-07-30T01:25:02;99639.41;;;22.26
51149;BMP280;37210;50.058;8.688;2023-07-30T01:27:34;99552.91;;;21.71
51149;BMP280;37210;50.058;8.688;2023-07-30T01:30:08;99611.16;;;21.93
51149;BMP280;37210;50.058;8.688;2023-07-30T01:32:58;99651.63;;;22.15
51149;BMP280;37210;50.058;8.688;2023-07-30T01:35:27;99649.66;;;22.18
51149;BMP280;37210;50.058;8.688;2023-07-30T01:37:57;99653.19;;;22.19
51149;BMP280;37210;50.058;8.688;2023-07-30T01:40:28;99659.94;;;22.24
51149;BMP280;37210;50.058;8.688;2023-07-30T01:42:55;99663.72;;;22.20
51149;BMP280;37210;50.058;8.688;2023-07-30T01:45:23;99643.72;;;22.13
51149;BMP280;37210;50.058;8.688;2023-07-30T01:47:50;99673.72;;;22.17
51149;BMP280;37210;50.058;8.688;2023-07-30T01:50:18;99669.50;;;22.13
51149;BMP280;37210;50.058;8.688;2023-07-30T01:52:45;99680.34;;;22.25
51149;BMP280;37210;50.058;8.688;2023-07-30T01:55:14;99683.25;;;22.21
51149;BMP280;37210;50.058;8.688;2023-07-30T01:57:42;99681.72;;;22.17
51149;BMP280;37210;50.058;8.688;2023-07-30T02:00:10;99663.03;;;22.01
51149;BMP280;37210;50.058;8.688;2023-07-30T02:02:40;99681.53;;;22.04
51149;BMP280;37210;50.058;8.688;2023-07-30T02:05:08;99636.66;;;21.81
51149;BMP280;37210;50.058;8.688;2023-07-30T02:07:35;99680.91;;;21.99
51149;BMP280;37210;50.058;8.688;2023-07-30T02:10:03;99673.88;;;21.98
51149;BMP280;37210;50.058;8.688;2023-07-30T02:12:32;99645.75;;;21.77
51149;BMP280;37210;50.058;8.688;2023-07-30T02:15:00;99681.28;;;22.09
51149;BMP280;37210;50.058;8.688;2023-07-30T02:17:27;99685.56;;;22.11
51149;BMP280;37210;50.058;8.688;2023-07-30T02:19:54;99671.22;;;21.98
51149;BMP280;37210;50.058;8.688;2023-07-30T02:22:22;99688.56;;;22.05
51149;BMP280;37210;50.058;8.688;2023-07-30T02:24:50;99695.19;;;22.14
51149;BMP280;37210;50.058;8.688;2023-07-30T02:27:17;99557.38;;;21.39
51149;BMP280;37210;50.058;8.688;2023-07-30T02:29:46;99693.38;;;22.14
51149;BMP280;37210;50.058;8.688;2023-07-30T02:32:14;99684.25;;;22.03
51149;BMP280;37210;50.058;8.688;2023-07-30T02:34:41;99668.03;;;21.92
51149;BMP280;37210;50.058;8.688;2023-07-30T02:37:08;99697.06;;;21.96
51149;BMP280;37210;50.058;8.688;2023-07-30T02:39:36;99696.56;;;22.05
51149;BMP280;37210;50.058;8.688;2023-07-30T02:42:04;99649.19;;;21.79
51149;BMP280;37210;50.058;8.688;2023-07-30T02:44:32;99688.75;;;22.02
51149;BMP280;37210;50.058;8.688;2023-07-30T02:47:01;99657.66;;;21.70
51149;BMP280;37210;50.058;8.688;2023-07-30T02:49:32;99694.38;;;21.64
51149;BMP280;37210;50.058;8.688;2023-07-30T02:51:59;99714.06;;;21.94
51149;BMP280;37210;50.058;8.688;2023-07-30T02:54:26;99732.81;;;21.92
51149;BMP280;37210;50.058;8.688;2023-07-30T02:56:54;99736.25;;;21.94
51149;BMP280;37210;50.058;8.688;2023-07-30T02:59:21;99738.19;;;21.91
51149;BMP280;37210;50.058;8.688;2023-07-30T03:01:49;99723.50;;;21.84
51149;BMP280;37210;50.058;8.688;2023-07-30T03:04:17;99738.63;;;21.83
51149;BMP280;37210;50.058;8.688;2023-07-30T03:06:45;99733.75;;;21.74
51149;BMP280;37210;50.058;8.688;2023-07-30T03:09:13;99737.75;;;21.66
51149;BMP280;37210;50.058;8.688;2023-07-30T03:11:40;99734.19;;;21.49
51149;BMP280;37210;50.058;8.688;2023-07-30T03:14:10;99745.75;;;21.66
51149;BMP280;37210;50.058;8.688;2023-07-30T03:16:37;99691.06;;;21.43
51149;BMP280;37210;50.058;8.688;2023-07-30T03:19:05;99724.13;;;21.72
51149;BMP280;37210;50.058;8.688;2023-07-30T03:21:33;99724.56;;;21.30
51149;BMP280;37210;50.058;8.688;2023-07-30T03:24:01;99692.28;;;21.53
51149;BMP280;37210;50.058;8.688;2023-07-30T03:26:28;99720.22;;;21.62
51149;BMP280;37210;50.058;8.688;2023-07-30T03:28:56;99721.34;;;21.58
51149;BMP280;37210;50.058;8.688;2023-07-30T03:31:23;99730.19;;;21.58
51149;BMP280;37210;50.058;8.688;2023-07-30T03:33:50;99734.50;;;21.43
51149;BMP280;37210;50.058;8.688;2023-07-30T03:36:18;99734.66;;;21.40
51149;BMP280;37210;50.058;8.688;2023-07-30T03:38:46;99624.16;;;20.84
51149;BMP280;37210;50.058;8.688;2023-07-30T03:41:14;99731.28;;;21.54
51149;BMP280;37210;50.058;8.688;2023-07-30T03:43:41;99696.41;;;21.43
51149;BMP280;37210;50.058;8.688;2023-07-30T03:46:09;99711.81;;;20.85
51149;BMP280;37210;50.058;8.688;2023-07-30T03:48:36;99721.44;;;21.22
51149;BMP280;37210;50.058;8.688;2023-07-30T03:51:04;99705.81;;;21.33
51149;BMP280;37210;50.058;8.688;2023-07-30T03:53:33;99704.63;;;21.38
51149;BMP280;37210;50.058;8.688;2023-07-30T03:56:02;99691.31;;;21.38
51149;BMP280;37210;50.058;8.688;2023-07-30T03:58:30;99720.03;;;21.32
51149;BMP280;37210;50.058;8.688;2023-07-30T04:00:57;99716.72;;;20.93
51149;BMP280;37210;50.058;8.688;2023-07-30T04:03:25;99722.97;;;21.27
51149;BMP280;37210;50.058;8.688;2023-07-30T04:05:53;99644.34;;;20.70
51149;BMP280;37210;50.058;8.688;2023-07-30T04:08:20;99662.47;;;20.80
51149;BMP280;37210;50.058;8.688;2023-07-30T04:10:50;99595.13;;;20.28
51149;BMP280;37210;50.058;8.688;2023-07-30T04:13:18;99648.16;;;20.65
51149;BMP280;37210;50.058;8.688;2023-07-30T04:15:47;99737.41;;;21.22
51149;BMP280;37210;50.058;8.688;2023-07-30T04:18:14;99719.91;;;21.18
51149;BMP280;37210;50.058;8.688;2023-07-30T04:20:42;99741.63;;;21.26
51149;BMP280;37210;50.058;8.688;2023-07-30T04:23:11;99723.75;;;21.12
51149;BMP280;37210;50.058;8.688;2023-07-30T04:25:38;99745.44;;;20.50
51149;BMP280;37210;50.058;8.688;2023-07-30T04:28:06;99707.72;;;20.78
51149;BMP280;37210;50.058;8.688;2023-07-30T04:30:36;99718.63;;;20.55
51149;BMP280;37210;50.058;8.688;2023-07-30T04:33:03;99745.47;;;21.03
51149;BMP280;37210;50.058;8.688;2023-07-30T04:35:31;99740.78;;;21.08
51149;BMP280;37210;50.058;8.688;2023-07-30T04:38:02;99742.75;;;21.05
51149;BMP280;37210;50.058;8.688;2023-07-30T04:40:29;99743.22;;;21.13
51149;BMP280;37210;50.058;8.688;2023-07-30T04:42:57;99736.19;;;20.76
51149;BMP280;37210;50.058;8.688;2023-07-30T04:45:24;99758.78;;;21.20
51149;BMP280;37210;50.058;8.688;2023-07-30T04:47:53;99762.53;;;21.33
51149;BMP280;37210;50.058;8.688;2023-07-30T04:50:21;99740.16;;;21.37
51149;BMP280;37210;50.058;8.688;2023-07-30T04:52:48;99713.78;;;21.16
51149;BMP280;37210;50.058;8.688;2023-07-30T04:55:16;99726.44;;;21.28
51149;BMP280;37210;50.058;8.688;2023-07-30T04:57:43;99731.94;;;21.25
51149;BMP280;37210;50.058;8.688;2023-07-30T05:00:12;99766.13;;;21.49
51149;BMP280;37210;50.058;8.688;2023-07-30T05:02:42;99773.78;;;21.38
51149;BMP280;37210;50.058;8.688;2023-07-30T05:05:10;99723.41;;;21.35
51149;BMP280;37210;50.058;8.688;2023-07-30T05:07:38;99752.03;;;21.65
51149;BMP280;37210;50.058;8.688;2023-07-30T05:10:06;99761.69;;;22.15
51149;BMP280;37210;50.058;8.688;2023-07-30T05:12:36;99747.28;;;22.19
51149;BMP280;37210;50.058;8.688;2023-07-30T05:15:05;99741.56;;;21.94
51149;BMP280;37210;50.058;8.688;2023-07-30T05:17:33;99756.59;;;21.95
51149;BMP280;37210;50.058;8.688;2023-07-30T05:20:01;99764.44;;;22.14
51149;BMP280;37210;50.058;8.688;2023-07-30T05:22:30;99748.13;;;22.20
51149;BMP280;37210;50.058;8.688;2023-07-30T05:24:57;99757.66;;;22.55
51149;BMP280;37210;50.058;8.688;2023-07-30T05:27:24;99727.41;;;22.87
51149;BMP280;37210;50.058;8.688;2023-07-30T05:29:54;99736.72;;;23.10
51149;BMP280;37210;50.058;8.688;2023-07-30T05:32:25;99734.84;;;23.56
51149;BMP280;37210;50.058;8.688;2023-07-30T05:34:52;99735.47;;;23.16
51149;BMP280;37210;50.058;8.688;2023-07-30T05:37:19;99712.34;;;23.30
51149;BMP280;37210;50.058;8.688;2023-07-30T05:39:51;99721.47;;;23.42
51149;BMP280;37210;50.058;8.688;2023-07-30T05:42:20;99706.72;;;23.36
51149;BMP280;37210;50.058;8.688;2023-07-30T05:44:48;99722.53;;;23.53
51149;BMP280;37210;50.058;8.688;2023-07-30T05:47:15;99723.31;;;24.12
51149;BMP280;37210;50.058;8.688;2023-07-30T05:49:46;99587.38;;;23.38
51149;BMP280;37210;50.058;8.688;2023-07-30T05:52:15;99713.47;;;24.67
51149;BMP280;37210;50.058;8.688;2023-07-30T05:54:42;99716.22;;;25.19
51149;BMP280;37210;50.058;8.688;2023-07-30T05:57:11;99707.78;;;25.37
51149;BMP280;37210;50.058;8.688;2023-07-30T05:59:39;99708.56;;;25.65
51149;BMP280;37210;50.058;8.688;2023-07-30T06:02:06;99709.41;;;25.90
51149;BMP280;37210;50.058;8.688;2023-07-30T06:04:34;99706.69;;;26.28
51149;BMP280;37210;50.058;8.688;2023-07-30T06:07:02;99706.06;;;26.48
51149;BMP280;37210;50.058;8.688;2023-07-30T06:09:30;99690.81;;;26.25
51149;BMP280;37210;50.058;8.688;2023-07-30T06:11:57;99692.66;;;26.48
51149;BMP280;37210;50.058;8.688;2023-07-30T06:14:26;99706.28;;;26.81
51149;BMP280;37210;50.058;8.688;2023-07-30T06:16:54;99715.25;;;26.93
51149;BMP280;37210;50.058;8.688;2023-07-30T06:19:21;99710.72;;;27.28
51149;BMP280;37210;50.058;8.688;2023-07-30T06:21:49;99698.66;;;27.34
51149;BMP280;37210;50.058;8.688;2023-07-30T06:24:17;99713.03;;;27.33
51149;BMP280;37210;50.058;8.688;2023-07-30T06:26:44;99727.22;;;27.81
51149;BMP280;37210;50.058;8.688;2023-07-30T06:29:11;99729.44;;;28.09
51149;BMP280;37210;50.058;8.688;2023-07-30T06:31:40;99734.94;;;27.96
51149;BMP280;37210;50.058;8.688;2023-07-30T06:34:07;99736.69;;;27.97
51149;BMP280;37210;50.058;8.688;2023-07-30T06:36:35;99735.34;;;27.46
51149;BMP280;37210;50.058;8.688;2023-07-30T06:39:02;99742.91;;;27.41
51149;BMP280;37210;50.058;8.688;2023-07-30T06:41:30;99746.38;;;26.59
51149;BMP280;37210;50.058;8.688;2023-07-30T06:43:57;99746.41;;;26.47
51149;BMP280;37210;50.058;8.688;2023-07-30T06:46:25;99749.50;;;26.17
51149;BMP280;37210;50.058;8.688;2023-07-30T06:48:53;99751.44;;;26.15
51149;BMP280;37210;50.058;8.688;2023-07-30T06:51:24;99753.97;;;25.79
51149;BMP280;37210;50.058;8.688;2023-07-30T06:53:52;99751.31;;;25.91
51149;BMP280;37210;50.058;8.688;2023-07-30T06:56:20;99742.09;;;25.83
51149;BMP280;37210;50.058;8.688;2023-07-30T06:58:47;99735.78;;;25.59
51149;BMP280;37210;50.058;8.688;2023-07-30T07:01:14;99750.88;;;25.85
51149;BMP280;37210;50.058;8.688;2023-07-30T07:03:42;99745.91;;;25.41
51149;BMP280;37210;50.058;8.688;2023-07-30T07:06:10;99745.63;;;25.58
51149;BMP280;37210;50.058;8.688;2023-07-30T07:08:38;99747.38;;;25.84
51149;BMP280;37210;50.058;8.688;2023-07-30T07:11:05;99761.19;;;25.78
51149;BMP280;37210;50.058;8.688;2023-07-30T07:13:32;99753.66;;;25.96
51149;BMP280;37210;50.058;8.688;2023-07-30T07:16:00;99726.13;;;25.69
51149;BMP280;37210;50.058;8.688;2023-07-30T07:18:27;99769.31;;;25.77
51149;BMP280;37210;50.058;8.688;2023-07-30T07:20:54;99779.25;;;25.50
51149;BMP280;37210;50.058;8.688;2023-07-30T07:23:23;99777.66;;;25.72
51149;BMP280;37210;50.058;8.688;2023-07-30T07:25:51;99774.97;;;25.47
51149;BMP280;37210;50.058;8.688;2023-07-30T07:28:19;99787.09;;;25.53
51149;BMP280;37210;50.058;8.688;2023-07-30T07:30:46;99804.84;;;25.54
51149;BMP280;37210;50.058;8.688;2023-07-30T07:33:13;99796.72;;;25.43
51149;BMP280;37210;50.058;8.688;2023-07-30T07:35:41;99809.13;;;25.17
51149;BMP280;37210;50.058;8.688;2023-07-30T07:38:08;99803.19;;;25.26
51149;BMP280;37210;50.058;8.688;2023-07-30T07:40:38;99785.94;;;25.03
51149;BMP280;37210;50.058;8.688;2023-07-30T07:43:06;99810.84;;;24.91
51149;BMP280;37210;50.058;8.688;2023-07-30T07:45:34;99806.31;;;25.06
51149;BMP280;37210;50.058;8.688;2023-07-30T07:48:02;99814.25;;;25.07
51149;BMP280;37210;50.058;8.688;2023-07-30T07:50:29;99802.56;;;25.08
51149;BMP280;37210;50.058;8.688;2023-07-30T07:52:56;99768.00;;;24.65
51149;BMP280;37210;50.058;8.688;2023-07-30T07:55:24;99790.25;;;24.79
51149;BMP280;37210;50.058;8.688;2023-07-30T07:57:53;99776.34;;;24.87
51149;BMP280;37210;50.058;8.688;2023-07-30T08:00:20;99771.00;;;24.87
51149;BMP280;37210;50.058;8.688;2023-07-30T08:02:47;99767.97;;;24.93
51149;BMP280;37210;50.058;8.688;2023-07-30T08:05:15;99761.88;;;25.03
51149;BMP280;37210;50.058;8.688;2023-07-30T08:07:44;99765.59;;;24.88
51149;BMP280;37210;50.058;8.688;2023-07-30T08:10:12;99766.63;;;25.12
51149;BMP280;37210;50.058;8.688;2023-07-30T08:12:40;99767.94;;;25.19
51149;BMP280;37210;50.058;8.688;2023-07-30T08:15:09;99771.16;;;24.98
51149;BMP280;37210;50.058;8.688;2023-07-30T08:17:37;99767.75;;;24.41
51149;BMP280;37210;50.058;8.688;2023-07-30T08:20:05;99757.50;;;24.76
51149;BMP280;37210;50.058;8.688;2023-07-30T08:22:33;99770.78;;;24.77
51149;BMP280;37210;50.058;8.688;2023-07-30T08:25:01;99778.28;;;24.44
51149;BMP280;37210;50.058;8.688;2023-07-30T08:27:28;99775.19;;;24.78
51149;BMP280;37210;50.058;8.688;2023-07-30T08:29:56;99781.31;;;24.52
51149;BMP280;37210;50.058;8.688;2023-07-30T08:32:24;99778.66;;;24.93
51149;BMP280;37210;50.058;8.688;2023-07-30T08:34:52;99780.66;;;24.89
51149;BMP280;37210;50.058;8.688;2023-07-30T08:37:19;99765.88;;;24.84
51149;BMP280;37210;50.058;8.688;2023-07-30T08:39:46;99763.25;;;24.96
51149;BMP280;37210;50.058;8.688;2023-07-30T08:42:15;99754.47;;;25.33
51149;BMP280;37210;50.058;8.688;2023-07-30T08:44:42;99747.28;;;25.21
51149;BMP280;37210;50.058;8.688;2023-07-30T08:47:10;99746.28;;;25.49
51149;BMP280;37210;50.058;8.688;2023-07-30T08:49:39;99748.53;;;25.43
51149;BMP280;37210;50.058;8.688;2023-07-30T08:52:08;99753.03;;;25.55
51149;BMP280;37210;50.058;8.688;2023-07-30T08:54:38;99739.75;;;25.78
51149;BMP280;37210;50.058;8.688;2023-07-30T08:57:06;99750.13;;;26.21
51149;BMP280;37210;50.058;8.688;2023-07-30T08:59:37;99748.19;;;26.10
51149;BMP280;37210;50.058;8.688;2023-07-30T09:02:18;99739.69;;;26.29
51149;BMP280;37210;50.058;8.688;2023-07-30T09:04:58;99751.66;;;26.48
51149;BMP280;37210;50.058;8.688;2023-07-30T09:07:27;99747.19;;;26.36
51149;BMP280;37210;50.058;8.688;2023-07-30T09:09:55;99748.28;;;26.34
51149;BMP280;37210;50.058;8.688;2023-07-30T09:12:26;99743.81;;;25.96
51149;BMP280;37210;50.058;8.688;2023-07-30T09:14:55;99735.66;;;25.98
51149;BMP280;37210;50.058;8.688;2023-07-30T09:17:22;99736.22;;;25.78
51149;BMP280;37210;50.058;8.688;2023-07-30T09:19:51;99738.88;;;26.03
51149;BMP280;37210;50.058;8.688;2023-07-30T09:22:25;99734.16;;;26.19
51149;BMP280;37210;50.058;8.688;2023-07-30T09:24:53;99733.31;;;26.55
51149;BMP280;37210;50.058;8.688;2023-07-30T09:27:22;99735.56;;;26.48
51149;BMP280;37210;50.058;8.688;2023-07-30T09:29:52;99734.16;;;26.55
51149;BMP280;37210;50.058;8.688;2023-07-30T09:32:25;99724.97;;;26.47
51149;BMP280;37210;50.058;8.688;2023-07-30T09:34:53;99725.56;;;25.89
51149;BMP280;37210;50.058;8.688;2023-07-30T09:37:21;99748.41;;;26.07
51149;BMP280;37210;50.058;8.688;2023-07-30T09:39:50;99763.97;;;25.25
51149;BMP280;37210;50.058;8.688;2023-07-30T09:42:17;99774.25;;;24.37
51149;BMP280;37210;50.058;8.688;2023-07-30T09:44:46;99776.03;;;24.65
51149;BMP280;37210;50.058;8.688;2023-07-30T09:47:14;99779.78;;;24.48
51149;BMP280;37210;50.058;8.688;2023-07-30T09:49:42;99788.19;;;24.42
51149;BMP280;37210;50.058;8.688;2023-07-30T09:52:10;99784.97;;;23.95
51149;BMP280;37210;50.058;8.688;2023-07-30T09:54:39;99814.34;;;24.37
51149;BMP280;37210;50.058;8.688;2023-07-30T09:57:08;99822.63;;;23.90
51149;BMP280;37210;50.058;8.688;2023-07-30T09:59:36;99833.66;;;23.70
51149;BMP280;37210;50.058;8.688;2023-07-30T10:02:05;99814.19;;;23.68
51149;BMP280;37210;50.058;8.688;2023-07-30T10:04:37;99846.78;;;24.03
51149;BMP280;37210;50.058;8.688;2023-07-30T10:07:13;99865.91;;;23.81
51149;BMP280;37210;50.058;8.688;2023-07-30T10:09:45;99862.59;;;23.77
51149;BMP280;37210;50.058;8.688;2023-07-30T10:12:21;99858.75;;;23.38
51149;BMP280;37210;50.058;8.688;2023-07-30T10:14:52;99875.97;;;23.62
51149;BMP280;37210;50.058;8.688;2023-07-30T10:17:19;99885.88;;;23.60
51149;BMP280;37210;50.058;8.688;2023-07-30T10:19:47;99888.75;;;23.57
51149;BMP280;37210;50.058;8.688;2023-07-30T10:22:23;99887.28;;;23.51
51149;BMP280;37210;50.058;8.688;2023-07-30T10:24:58;99876.34;;;23.86
51149;BMP280;37210;50.058;8.688;2023-07-30T10:27:37;99890.28;;;23.91
51149;BMP280;37210;50.058;8.688;2023-07-30T10:30:10;99889.72;;;23.70
51149;BMP280;37210;50.058;8.688;2023-07-30T10:32:39;99893.41;;;23.83
51149;BMP280;37210;50.058;8.688;2023-07-30T10:35:07;99911.44;;;23.64
51149;BMP280;37210;50.058;8.688;2023-07-30T10:37:35;99902.97;;;23.26
51149;BMP280;37210;50.058;8.688;2023-07-30T10:40:16;99895.78;;;23.58
51149;BMP280;37210;50.058;8.688;2023-07-30T10:42:46;99911.84;;;23.72
51149;BMP280;37210;50.058;8.688;2023-07-30T10:45:15;99901.69;;;23.78
51149;BMP280;37210;50.058;8.688;2023-07-30T10:47:42;99906.19;;;23.78
51149;BMP280;37210;50.058;8.688;2023-07-30T10:50:10;99912.75;;;23.87
51149;BMP280;37210;50.058;8.688;2023-07-30T10:52:39;99921.59;;;24.03
51149;BMP280;37210;50.058;8.688;2023-07-30T10:55:07;99917.56;;;23.66
51149;BMP280;37210;50.058;8.688;2023-07-30T10:57:35;99913.72;;;23.56
51149;BMP280;37210;50.058;8.688;2023-07-30T11:00:05;99910.31;;;23.98
51149;BMP280;37210;50.058;8.688;2023-07-30T11:02:33;99916.44;;;24.00
51149;BMP280;37210;50.058;8.688;2023-07-30T11:05:11;99910.03;;;24.02
51149;BMP280;37210;50.058;8.688;2023-07-30T11:07:39;99932.34;;;24.31
51149;BMP280;37210;50.058;8.688;2023-07-30T11:10:18;99923.03;;;24.38
51149;BMP280;37210;50.058;8.688;2023-07-30T11:12:48;99940.50;;;24.43
51149;BMP280;37210;50.058;8.688;2023-07-30T11:15:17;99934.00;;;24.47
51149;BMP280;37210;50.058;8.688;2023-07-30T11:17:45;99929.50;;;24.34
51149;BMP280;37210;50.058;8.688;2023-07-30T11:20:22;99940.72;;;24.83
51149;BMP280;37210;50.058;8.688;2023-07-30T11:22:52;99927.03;;;24.87
51149;BMP280;37210;50.058;8.688;2023-07-30T11:25:20;99928.16;;;24.97
51149;BMP280;37210;50.058;8.688;2023-07-30T11:27:47;99934.56;;;25.09
51149;BMP280;37210;50.058;8.688;2023-07-30T11:30:17;99939.03;;;25.22
51149;BMP280;37210;50.058;8.688;2023-07-30T11:32:45;99938.13;;;25.09
51149;BMP280;37210;50.058;8.688;2023-07-30T11:35:13;99935.06;;;24.59
51149;BMP280;37210;50.058;8.688;2023-07-30T11:37:43;99953.84;;;24.29
51149;BMP280;37210;50.058;8.688;2023-07-30T11:40:11;99955.38;;;24.61
51149;BMP280;37210;50.058;8.688;2023-07-30T11:42:39;99960.28;;;24.55
51149;BMP280;37210;50.058;8.688;2023-07-30T11:45:19;99945.38;;;24.65
51149;BMP280;37210;50.058;8.688;2023-07-30T11:47:48;99957.25;;;24.75
51149;BMP280;37210;50.058;8.688;2023-07-30T11:50:46;99955.81;;;24.70
51149;BMP280;37210;50.058;8.688;2023-07-30T11:53:14;99932.38;;;24.45
51149;BMP280;37210;50.058;8.688;2023-07-30T11:55:43;99966.09;;;24.47
51149;BMP280;37210;50.058;8.688;2023-07-30T11:58:12;99894.72;;;24.06
51149;BMP280;37210;50.058;8.688;2023-07-30T12:00:41;99822.97;;;23.70
51149;BMP280;37210;50.058;8.688;2023-07-30T12:03:11;99946.91;;;24.55
51149;BMP280;37210;50.058;8.688;2023-07-30T12:05:39;99812.50;;;23.81
51149;BMP280;37210;50.058;8.688;2023-07-30T12:08:16;99920.13;;;24.27
51149;BMP280;37210;50.058;8.688;2023-07-30T12:10:46;99960.94;;;24.44
51149;BMP280;37210;50.058;8.688;2023-07-30T12:13:16;99973.56;;;24.56
51149;BMP280;37210;50.058;8.688;2023-07-30T12:15:50;99952.69;;;24.33
51149;BMP280;37210;50.058;8.688;2023-07-30T12:18:24;99967.44;;;24.54
51149;BMP280;37210;50.058;8.688;2023-07-30T12:20:53;99969.19;;;24.84
51149;BMP280;37210;50.058;8.688;2023-07-30T12:23:23;99955.00;;;24.53
51149;BMP280;37210;50.058;8.688;2023-07-30T12:25:51;99984.09;;;24.74
51149;BMP280;37210;50.058;8.688;2023-07-30T12:28:19;99975.31;;;24.86
51149;BMP280;37210;50.058;8.688;2023-07-30T12:30:46;99970.63;;;24.89
51149;BMP280;37210;50.058;8.688;2023-07-30T12:33:14;99954.19;;;24.81
51149;BMP280;37210;50.058;8.688;2023-07-30T12:35:46;99960.59;;;24.21
51149;BMP280;37210;50.058;8.688;2023-07-30T12:38:18;99957.50;;;24.42
51149;BMP280;37210;50.058;8.688;2023-07-30T12:40:47;99977.81;;;24.31
51149;BMP280;37210;50.058;8.688;2023-07-30T12:43:16;100011.25;;;24.08
51149;BMP280;37210;50.058;8.688;2023-07-30T12:45:45;99892.88;;;23.62
51149;BMP280;37210;50.058;8.688;2023-07-30T12:48:19;99883.97;;;23.62
51149;BMP280;37210;50.058;8.688;2023-07-30T12:50:46;99963.78;;;24.41
51149;BMP280;37210;50.058;8.688;2023-07-30T12:53:14;100000.03;;;24.89
51149;BMP280;37210;50.058;8.688;2023-07-30T12:55:41;99986.81;;;24.72
51149;BMP280;37210;50.058;8.688;2023-07-30T12:58:10;100002.66;;;24.91
51149;BMP280;37210;50.058;8.688;2023-07-30T13:00:37;100005.88;;;24.82
51149;BMP280;37210;50.058;8.688;2023-07-30T13:03:05;100007.97;;;24.77
51149;BMP280;37210;50.058;8.688;2023-07-30T13:05:34;99999.56;;;24.83
51149;BMP280;37210;50.058;8.688;2023-07-30T13:08:02;99883.19;;;24.05
51149;BMP280;37210;50.058;8.688;2023-07-30T13:10:29;100004.63;;;25.01
51149;BMP280;37210;50.058;8.688;2023-07-30T13:12:57;99995.28;;;24.94
51149;BMP280;37210;50.058;8.688;2023-07-30T13:15:25;100006.34;;;24.74
51149;BMP280;37210;50.058;8.688;2023-07-30T13:17:56;100011.09;;;24.69
51149;BMP280;37210;50.058;8.688;2023-07-30T13:20:24;100024.13;;;24.75
51149;BMP280;37210;50.058;8.688;2023-07-30T13:22:51;99999.75;;;24.66
51149;BMP280;37210;50.058;8.688;2023-07-30T13:25:19;99962.38;;;24.50
51149;BMP280;37210;50.058;8.688;2023-07-30T13:27:47;100007.31;;;25.01
51149;BMP280;37210;50.058;8.688;2023-07-30T13:30:15;99952.75;;;24.90
51149;BMP280;37210;50.058;8.688;2023-07-30T13:32:44;100002.06;;;25.00
51149;BMP280;37210;50.058;8.688;2023-07-30T13:35:11;100003.69;;;24.88
51149;BMP280;37210;50.058;8.688;2023-07-30T13:37:38;100016.41;;;24.99
51149;BMP280;37210;50.058;8.688;2023-07-30T13:40:07;100021.66;;;24.86
51149;BMP280;37210;50.058;8.688;2023-07-30T13:42:35;99962.38;;;24.50
51149;BMP280;37210;50.058;8.688;2023-07-30T13:45:03;100007.03;;;24.92
51149;BMP280;37210;50.058;8.688;2023-07-30T13:47:32;100004.44;;;25.04
51149;BMP280;37210;50.058;8.688;2023-07-30T13:50:00;100021.06;;;24.95
51149;BMP280;37210;50.058;8.688;2023-07-30T13:52:30;100005.66;;;24.71
51149;BMP280;37210;50.058;8.688;2023-07-30T13:54:57;100015.63;;;24.83
51149;BMP280;37210;50.058;8.688;2023-07-30T13:57:25;100028.16;;;24.96
51149;BMP280;37210;50.058;8.688;2023-07-30T13:59:55;100014.47;;;24.87
51149;BMP280;37210;50.058;8.688;2023-07-30T14:02:22;100001.47;;;24.81
51149;BMP280;37210;50.058;8.688;2023-07-30T14:04:49;99948.72;;;24.54
51149;BMP280;37210;50.058;8.688;2023-07-30T14:07:21;100017.81;;;25.04
51149;BMP280;37210;50.058;8.688;2023-07-30T14:09:48;99977.25;;;24.54
51149;BMP280;37210;50.058;8.688;2023-07-30T14:12:16;100018.41;;;24.81
51149;BMP280;37210;50.058;8.688;2023-07-30T14:14:43;100012.69;;;24.57
51149;BMP280;37210;50.058;8.688;2023-07-30T14:17:11;100007.97;;;24.33